Time;durP1;ratioP1;P1;durP2;ratioP2;P2;SDS_P1;SDS_P2;PMS_P1;PMS_P2;Temp;Humidity;BMP_temperature;BMP_pressure;BME280_temperature;BME280_humidity;BME280_pressure;Samples;Min_cycle;Max_cycle;Signal;HPM_P1;HPM_P2
2023/08/04 00:02:23;;;;;;;7.43;3.60;;;28.00;82.90;;;;;;6238435;23;20035;-74
2023/08/04 00:04:48;;;;;;;6.40;3.58;;;28.00;83.20;;;;;;6215494;23;20357;-72
2023/08/04 00:07:15;;;;;;;11.43;4.20;;;28.00;83.10;;;;;;6215293;23;20026;-74
2023/08/04 00:09:41;;;;;;;9.75;4.10;;;28.00;83.20;;;;;;6214866;23;20068;-74
2023/08/04 00:12:07;;;;;;;8.38;3.85;;;28.00;83.50;;;;;;6213550;23;20001;-74
2023/08/04 00:14:32;;;;;;;9.20;4.07;;;27.90;83.70;;;;;;6215170;23;20080;-74
2023/08/04 00:16:58;;;;;;;17.08;4.25;;;27.90;83.80;;;;;;6188431;23;20023;-75
2023/08/04 00:19:24;;;;;;;8.60;3.88;;;27.90;83.90;;;;;;6214666;23;20001;-74
2023/08/04 00:21:49;;;;;;;13.18;4.25;;;27.90;83.90;;;;;;6215338;23;20422;-74
2023/08/04 00:24:15;;;;;;;11.45;3.95;;;27.90;84.00;;;;;;6215098;23;20303;-74
2023/08/04 00:26:41;;;;;;;7.38;3.88;;;27.90;84.20;;;;;;6214631;23;20029;-74
2023/08/04 00:29:06;;;;;;;11.02;3.80;;;27.90;84.20;;;;;;6214894;23;20035;-74
2023/08/04 00:31:32;;;;;;;9.27;4.00;;;27.90;84.40;;;;;;6215118;23;19997;-75
2023/08/04 00:33:58;;;;;;;9.13;4.00;;;27.80;84.40;;;;;;6214734;23;20224;-72
2023/08/04 00:36:24;;;;;;;9.57;3.97;;;27.80;84.40;;;;;;6214836;23;20431;-75
2023/08/04 00:38:49;;;;;;;11.85;3.85;;;27.80;84.40;;;;;;6215430;23;20005;-75
2023/08/04 00:41:15;;;;;;;8.65;4.32;;;27.80;84.50;;;;;;6215084;23;20055;-74
2023/08/04 00:43:40;;;;;;;8.43;4.18;;;27.80;84.50;;;;;;6214945;23;20434;-74
2023/08/04 00:46:06;;;;;;;11.57;3.80;;;27.80;84.60;;;;;;6214957;23;20008;-75
2023/08/04 00:48:32;;;;;;;7.25;3.83;;;27.80;84.50;;;;;;6214892;23;20012;-74
2023/08/04 00:50:58;;;;;;;7.85;3.53;;;27.80;84.50;;;;;;6214670;23;20371;-74
2023/08/04 00:53:23;;;;;;;8.18;3.92;;;27.80;84.40;;;;;;6214427;23;20410;-74
2023/08/04 00:55:50;;;;;;;11.63;3.70;;;27.70;84.50;;;;;;6214546;23;20008;-75
2023/08/04 00:58:16;;;;;;;9.63;4.05;;;27.70;84.60;;;;;;6215005;23;20074;-75
2023/08/04 01:00:41;;;;;;;9.77;4.20;;;27.70;84.70;;;;;;6214321;23;20438;-74
2023/08/04 01:03:07;;;;;;;7.35;3.53;;;27.70;84.70;;;;;;6214340;23;20016;-75
2023/08/04 01:05:48;;;;;;;9.52;3.97;;;27.60;84.70;;;;;;6214655;23;20012;-75
2023/08/04 01:08:21;;;;;;;6.72;3.67;;;27.60;85.20;;;;;;6214812;23;19996;-75
2023/08/04 01:10:59;;;;;;;7.93;4.17;;;27.60;84.60;;;;;;6214523;23;20005;-75
2023/08/04 01:13:27;;;;;;;8.07;3.70;;;27.50;85.30;;;;;;6214406;23;20000;-75
2023/08/04 01:15:56;;;;;;;10.57;4.10;;;27.50;84.70;;;;;;6214570;23;20015;-74
2023/08/04 01:18:21;;;;;;;7.95;4.30;;;27.50;85.00;;;;;;6214958;23;20086;-75
2023/08/04 01:20:48;;;;;;;8.00;3.80;;;27.50;85.10;;;;;;6214488;23;20005;-74
2023/08/04 01:23:14;;;;;;;9.88;4.25;;;27.40;85.00;;;;;;6214476;23;20346;-74
2023/08/04 01:25:40;;;;;;;7.57;4.05;;;27.40;84.90;;;;;;6214293;23;20004;-74
2023/08/04 01:28:11;;;;;;;10.82;4.68;;;27.50;84.80;;;;;;6213999;23;20023;-73
2023/08/04 01:30:38;;;;;;;11.10;3.95;;;27.40;84.70;;;;;;6214057;23;20075;-75
2023/08/04 01:33:04;;;;;;;8.45;4.28;;;27.40;84.70;;;;;;6214266;23;20004;-74
2023/08/04 01:35:29;;;;;;;10.77;4.60;;;27.40;84.50;;;;;;6214103;23;20013;-74
2023/08/04 01:37:55;;;;;;;13.82;4.55;;;27.40;84.40;;;;;;6214415;23;19997;-75
2023/08/04 01:40:21;;;;;;;8.90;4.45;;;27.40;84.40;;;;;;6214455;23;20453;-75
2023/08/04 01:42:47;;;;;;;9.43;4.28;;;27.40;84.20;;;;;;6214245;23;19997;-71
2023/08/04 01:45:12;;;;;;;12.45;4.90;;;27.40;84.00;;;;;;6214321;23;20009;-74
2023/08/04 01:47:39;;;;;;;10.38;4.50;;;27.40;84.10;;;;;;6214486;23;20452;-75
2023/08/04 01:50:09;;;;;;;11.95;5.50;;;27.40;84.10;;;;;;6214212;23;20005;-75
2023/08/04 01:52:35;;;;;;;11.15;4.75;;;27.40;84.60;;;;;;6214092;23;20029;-74
2023/08/04 01:55:01;;;;;;;11.48;4.80;;;27.40;83.90;;;;;;6214006;23;20012;-76
2023/08/04 01:57:27;;;;;;;9.95;4.80;;;27.30;84.00;;;;;;6213878;23;20088;-74
2023/08/04 01:59:52;;;;;;;12.30;4.80;;;27.30;84.00;;;;;;6214294;23;20008;-74
2023/08/04 02:02:18;;;;;;;8.73;4.70;;;27.30;84.00;;;;;;6213600;23;20063;-74
2023/08/04 02:04:44;;;;;;;9.20;4.72;;;27.40;84.00;;;;;;6214093;23;20021;-75
2023/08/04 02:07:09;;;;;;;10.65;5.72;;;27.40;83.90;;;;;;6214190;23;20484;-74
2023/08/04 02:09:35;;;;;;;10.55;4.63;;;27.30;83.80;;;;;;6214321;23;20012;-75
2023/08/04 02:12:01;;;;;;;10.98;4.50;;;27.30;83.90;;;;;;6213663;23;20092;-74
2023/08/04 02:14:29;;;;;;;10.02;4.47;;;27.30;84.10;;;;;;6213940;23;20005;-74
2023/08/04 02:16:56;;;;;;;9.52;4.63;;;27.30;84.60;;;;;;6214084;23;20001;-75
2023/08/04 02:19:22;;;;;;;11.60;4.80;;;27.20;84.30;;;;;;6214130;23;20175;-74
2023/08/04 02:21:51;;;;;;;8.98;4.80;;;27.20;84.50;;;;;;6213943;23;20039;-74
2023/08/04 02:24:17;;;;;;;8.63;4.30;;;27.10;84.40;;;;;;6214117;23;20001;-73
2023/08/04 02:26:46;;;;;;;8.82;4.30;;;27.20;84.70;;;;;;6213574;23;19997;-73
2023/08/04 02:29:14;;;;;;;9.85;4.50;;;27.10;84.80;;;;;;6213882;23;20533;-75
2023/08/04 02:31:41;;;;;;;7.63;4.45;;;27.10;85.30;;;;;;6213516;23;19997;-75
2023/08/04 02:34:07;;;;;;;8.10;4.60;;;27.10;84.80;;;;;;6213887;23;20008;-75
2023/08/04 02:36:32;;;;;;;10.57;4.40;;;27.10;84.90;;;;;;6213879;23;20034;-74
2023/08/04 02:38:58;;;;;;;7.30;3.90;;;27.10;85.20;;;;;;6213743;23;20028;-73
2023/08/04 02:41:24;;;;;;;8.00;4.22;;;27.10;85.40;;;;;;6214378;23;20027;-74
2023/08/04 02:43:49;;;;;;;8.32;3.88;;;27.10;85.40;;;;;;6213621;23;20054;-73
2023/08/04 02:46:15;;;;;;;13.90;4.10;;;27.10;85.70;;;;;;6214061;23;20008;-74
2023/08/04 02:48:41;;;;;;;7.38;3.88;;;27.10;86.20;;;;;;6213829;23;20008;-74
2023/08/04 02:51:08;;;;;;;8.57;3.88;;;27.10;86.40;;;;;;6213545;23;20055;-73
2023/08/04 02:53:35;;;;;;;10.63;4.15;;;27.00;86.60;;;;;;6213237;23;20008;-74
2023/08/04 02:56:08;;;;;;;9.20;4.28;;;27.00;87.20;;;;;;6213405;23;20015;-74
2023/08/04 02:58:34;;;;;;;7.95;4.20;;;27.00;87.60;;;;;;6213693;23;20051;-74
2023/08/04 03:01:00;;;;;;;9.75;4.35;;;26.90;87.70;;;;;;6214091;23;20032;-75
2023/08/04 03:03:25;;;;;;;8.98;4.18;;;26.90;88.00;;;;;;6213678;23;20411;-75
2023/08/04 03:05:51;;;;;;;8.45;3.83;;;26.90;88.10;;;;;;6213551;23;20312;-74
2023/08/04 03:08:17;;;;;;;8.80;4.30;;;26.90;88.20;;;;;;6213602;23;20011;-74
2023/08/04 03:10:42;;;;;;;9.27;3.95;;;27.00;88.00;;;;;;6213746;23;20000;-74
2023/08/04 03:13:09;;;;;;;10.18;4.43;;;27.00;88.10;;;;;;6214059;23;20001;-75
2023/08/04 03:15:35;;;;;;;8.75;4.53;;;26.90;88.20;;;;;;6214639;23;20043;-75
2023/08/04 03:18:01;;;;;;;8.73;4.13;;;26.90;88.20;;;;;;6215352;23;20000;-75
2023/08/04 03:20:29;;;;;;;8.50;3.75;;;26.90;88.50;;;;;;6214955;23;20063;-74
2023/08/04 03:22:54;;;;;;;7.72;3.85;;;27.00;88.40;;;;;;6215684;23;20008;-75
2023/08/04 03:25:20;;;;;;;10.23;4.25;;;27.00;88.20;;;;;;6216954;23;20084;-75
2023/08/04 03:27:46;;;;;;;9.57;4.10;;;27.00;88.20;;;;;;6215428;23;20000;-75
2023/08/04 03:30:11;;;;;;;13.02;4.43;;;27.00;88.00;;;;;;6215187;23;20052;-76
2023/08/04 03:32:37;;;;;;;8.13;4.30;;;27.00;88.10;;;;;;6215545;23;20000;-75
2023/08/04 03:35:03;;;;;;;7.13;4.18;;;27.00;88.10;;;;;;6215387;23;20016;-75
2023/08/04 03:37:29;;;;;;;5.90;3.92;;;27.00;88.00;;;;;;6215260;23;20378;-74
2023/08/04 03:39:54;;;;;;;11.80;4.18;;;27.00;88.20;;;;;;6215485;23;20008;-75
2023/08/04 03:42:20;;;;;;;10.43;4.50;;;27.00;88.10;;;;;;6215256;23;19997;-74
2023/08/04 03:44:46;;;;;;;7.40;3.83;;;27.00;88.20;;;;;;6215490;23;20004;-73
2023/08/04 03:47:11;;;;;;;9.00;3.88;;;27.00;88.10;;;;;;6215246;23;20386;-74
2023/08/04 03:49:37;;;;;;;8.68;4.18;;;27.00;87.80;;;;;;6215440;23;20001;-74
2023/08/04 03:52:03;;;;;;;8.48;4.05;;;27.00;87.80;;;;;;6215377;23;20000;-74
2023/08/04 03:54:29;;;;;;;8.88;3.92;;;27.00;88.00;;;;;;6215374;23;20004;-74
2023/08/04 03:56:54;;;;;;;7.32;4.03;;;27.00;87.90;;;;;;6215512;23;20072;-74
2023/08/04 03:59:20;;;;;;;10.02;4.40;;;27.00;88.00;;;;;;6215468;23;19996;-75
2023/08/04 04:01:46;;;;;;;11.00;4.20;;;27.00;87.90;;;;;;6215009;23;20104;-75
2023/08/04 04:04:12;;;;;;;9.70;4.50;;;27.00;87.80;;;;;;6215132;23;20457;-74
2023/08/04 04:06:37;;;;;;;8.23;4.32;;;27.00;87.90;;;;;;6215055;23;19997;-74
2023/08/04 04:09:03;;;;;;;11.73;5.00;;;27.00;87.80;;;;;;6215126;23;20030;-75
2023/08/04 04:11:29;;;;;;;14.82;4.40;;;27.00;87.80;;;;;;6214739;23;20068;-74
2023/08/04 04:13:55;;;;;;;9.00;4.35;;;27.00;87.90;;;;;;6214953;23;20052;-75
2023/08/04 04:16:21;;;;;;;8.65;4.60;;;26.90;87.70;;;;;;6214859;23;20009;-74
2023/08/04 04:18:47;;;;;;;9.68;4.70;;;26.90;87.90;;;;;;6214853;23;20170;-74
2023/08/04 04:21:12;;;;;;;12.43;4.68;;;26.90;87.70;;;;;;6215131;23;20448;-74
2023/08/04 04:23:38;;;;;;;11.35;4.40;;;26.90;87.50;;;;;;6214793;23;20023;-74
2023/08/04 04:26:07;;;;;;;13.00;4.43;;;26.90;87.50;;;;;;6214635;23;20001;-74
2023/08/04 04:28:33;;;;;;;10.57;4.63;;;26.90;87.50;;;;;;6214917;23;20335;-75
2023/08/04 04:31:03;;;;;;;13.35;5.20;;;26.90;87.50;;;;;;6214608;23;20004;-74
2023/08/04 04:33:29;;;;;;;14.82;4.50;;;26.90;87.60;;;;;;6214611;23;20001;-74
2023/08/04 04:35:54;;;;;;;14.15;5.10;;;26.90;87.30;;;;;;6214596;23;20009;-75
2023/08/04 04:38:20;;;;;;;12.85;4.50;;;26.90;87.20;;;;;;6214409;23;20008;-74
2023/08/04 04:40:58;;;;;;;8.88;4.93;;;26.90;87.00;;;;;;6214584;23;20368;-74
2023/08/04 04:43:24;;;;;;;7.22;4.20;;;26.90;86.40;;;;;;6214938;23;20013;-75
2023/08/04 04:45:54;;;;;;;14.52;5.18;;;26.90;86.40;;;;;;6214738;23;20324;-75
2023/08/04 04:48:21;;;;;;;13.43;4.60;;;26.90;85.80;;;;;;6214691;23;20021;-74
2023/08/04 04:50:47;;;;;;;12.40;5.00;;;26.90;85.40;;;;;;6214728;23;20001;-76
2023/08/04 04:53:13;;;;;;;7.60;4.90;;;26.90;85.10;;;;;;6214907;23;20028;-77
2023/08/04 04:55:39;;;;;;;9.30;4.90;;;26.90;84.70;;;;;;6188009;23;20021;-74
2023/08/04 04:58:04;;;;;;;12.05;4.85;;;27.00;84.50;;;;;;6214736;23;19997;-74
2023/08/04 05:00:33;;;;;;;11.10;5.38;;;27.00;84.30;;;;;;6214955;23;20009;-75
2023/08/04 05:02:59;;;;;;;8.95;5.15;;;27.00;84.60;;;;;;6214635;23;20027;-74
2023/08/04 05:05:25;;;;;;;9.82;5.18;;;27.00;84.20;;;;;;6215103;23;20040;-75
2023/08/04 05:07:50;;;;;;;13.30;5.25;;;27.10;84.10;;;;;;6187876;23;20128;-75
2023/08/04 05:10:16;;;;;;;9.25;4.85;;;27.10;84.10;;;;;;6215227;23;20004;-77
2023/08/04 05:12:42;;;;;;;13.57;5.35;;;27.10;84.00;;;;;;6214887;23;20005;-75
2023/08/04 05:15:08;;;;;;;15.20;5.30;;;27.10;84.10;;;;;;6214814;23;20381;-74
2023/08/04 05:17:35;;;;;;;10.80;5.70;;;27.20;84.30;;;;;;6214752;23;20005;-76
2023/08/04 05:20:02;;;;;;;10.48;5.47;;;27.30;84.80;;;;;;6214730;23;20008;-75
2023/08/04 05:22:28;;;;;;;11.60;5.32;;;27.30;84.00;;;;;;6214575;23;20411;-76
2023/08/04 05:24:54;;;;;;;13.48;6.10;;;27.40;83.90;;;;;;6215187;23;20009;-76
2023/08/04 05:27:20;;;;;;;11.80;5.10;;;27.60;83.70;;;;;;6214754;23;20001;-76
2023/08/04 05:29:45;;;;;;;12.63;5.22;;;27.80;83.30;;;;;;6214266;23;20100;-74
2023/08/04 05:32:11;;;;;;;10.27;5.53;;;28.10;82.80;;;;;;6214515;23;19998;-77
2023/08/04 05:34:37;;;;;;;18.98;5.22;;;28.30;82.30;;;;;;6214489;23;20167;-75
2023/08/04 05:37:02;;;;;;;20.05;5.40;;;28.60;81.70;;;;;;6214478;23;20331;-76
2023/08/04 05:39:28;;;;;;;15.07;5.22;;;28.90;81.00;;;;;;6187633;23;20311;-75
2023/08/04 05:41:54;;;;;;;13.32;4.90;;;29.20;80.60;;;;;;6214454;23;20071;-75
2023/08/04 05:44:22;;;;;;;12.25;4.75;;;29.40;80.10;;;;;;6214291;23;20004;-74
2023/08/04 05:46:48;;;;;;;13.38;4.93;;;29.60;79.80;;;;;;6214456;23;20012;-75
2023/08/04 05:49:13;;;;;;;12.82;4.78;;;29.90;79.00;;;;;;6214807;23;20023;-77
2023/08/04 05:51:39;;;;;;;16.38;4.32;;;30.10;78.40;;;;;;6214981;23;20427;-74
2023/08/04 05:54:05;;;;;;;11.40;4.28;;;30.30;78.00;;;;;;6214159;23;20088;-74
2023/08/04 05:56:30;;;;;;;12.85;4.25;;;30.40;77.50;;;;;;6214368;23;20008;-74
2023/08/04 05:58:56;;;;;;;10.98;4.25;;;30.50;77.20;;;;;;6214283;23;20028;-77
2023/08/04 06:01:22;;;;;;;10.50;4.00;;;30.60;77.00;;;;;;6214490;23;20010;-75
